Latest Weather Observations for Flinders Island Airport

IDT60801

Issued at 3:41 pm EST Wednesday 20 June 2018 (issued every 10 minutes, with the page automatically refreshed every 10 minutes)

About weather observations | Map of weather stations | Latest weather observations for TAS | Other Formats
Station Details ID: 099005 Name: FLINDERS ISLAND AIRPORT Lat: -40.09 Lon: 148.00 Height: 9.0 m
Data from the previous 72 hours. | See also: Recent months at Flinders Island Airport
Date/Time
EST
Temp
°C
App
Temp
°C
Dew
Point
°C
Rel
Hum
%
Delta-T
°C
Wind Press
QNH
hPa
Press
MSL
hPa
Rain since
9am
mm
Dir  Spd
km/h
Gust
km/h
Spd
kts
Gust
kts
20/03:30pm 13.1 10.2 6.7 65 3.1 NNE 11 17 6 9 1027.0 1027.0 0.0
20/03:00pm 13.7 10.4 6.3 61 3.5 NNE 13 22 7 12 1026.9 1026.9 0.0
20/02:30pm 14.3 9.7 6.4 59 3.8 NNE 20 30 11 16 1026.9 1026.9 0.0
20/02:00pm 14.6 9.3 6.7 59 3.8 NNE 24 32 13 17 1027.0 1027.0 0.0
20/01:30pm 14.4 9.1 6.7 60 3.7 NE 24 35 13 19 1027.2 1027.2 0.0
20/01:00pm 14.5 9.6 6.8 60 3.7 NE 22 33 12 18 1027.6 1027.6 0.0
20/12:30pm 14.6 10.2 7.2 61 3.6 NE 20 32 11 17 1027.8 1027.8 0.0
20/12:00pm 14.8 10.6 7.4 61 3.6 NE 19 32 10 17 1028.2 1028.2 0.0
20/11:30am 14.1 9.9 7.4 64 3.3 NE 19 28 10 15 1028.7 1028.7 0.0
20/11:00am 13.4 10.3 8.9 74 2.3 NE 15 22 8 12 1029.0 1029.0 0.0
20/10:30am 12.5 10.8 11.2 92 0.7 ENE 11 15 6 8 1029.3 1029.3 0.0
20/10:00am 11.0 9.6 10.8 99 0.1 ENE 9 13 5 7 1029.5 1029.5 0.0
20/09:30am 8.5 6.4 8.4 99 0.0 ENE 9 9 5 5 1029.5 1029.5 0.0
20/09:00am 6.9 4.5 6.8 99 0.0 NE 9 11 5 6 1029.7 1029.7 0.0
20/08:30am 5.8 2.7 5.7 99 0.0 NE 11 13 6 7 1029.3 1029.3 0.0
20/08:00am 4.1 0.7 4.0 99 0.0 ENE 11 13 6 7 1029.1 1029.1 0.0
20/07:30am 3.9 0.5 3.8 99 0.0 ENE 11 13 6 7 1028.9 1028.9 0.0
20/07:00am 4.1 0.7 4.0 99 0.0 ENE 11 11 6 6 1028.9 1028.9 0.0
20/06:30am 3.5 -0.4 3.4 99 0.0 ENE 13 17 7 9 1028.7 1028.7 0.0
20/06:00am 3.8 0.0 3.7 99 0.0 ENE 13 17 7 9 1028.7 1028.7 0.0
20/05:30am 2.5 -1.2 2.4 99 0.0 ENE 11 13 6 7 1028.5 1028.5 0.0
20/05:00am 2.5 -0.5 2.2 98 0.1 ENE 7 7 4 4 1028.6 1028.6 0.0
20/04:30am 2.8 -0.9 2.5 98 0.1 ENE 11 13 6 7 1028.2 1028.2 0.0
20/04:00am 3.1 0.2 2.8 98 0.1 NE 7 9 4 5 1028.2 1028.2 0.0
20/03:30am 4.4 2.0 4.1 98 0.1 NE 6 9 3 5 1028.3 1028.3 0.0
20/03:00am 5.9 3.2 5.8 99 0.0 NE 9 11 5 6 1028.3 1028.3 0.0
20/02:30am 4.1 -0.4 4.0 99 0.0 ENE 17 19 9 10 1028.3 1028.3 0.0
20/02:00am 5.6 1.7 5.5 99 0.0 NE 15 17 8 9 1028.6 1028.6 0.0
20/01:30am 3.8 -0.4 3.7 99 0.0 ENE 15 17 8 9 1028.7 1028.7 0.0
20/01:00am 3.7 0.6 3.6 99 0.0 NE 9 11 5 6 1029.2 1029.2 0.0
20/12:30am 3.8 0.3 3.7 99 0.0 ENE 11 13 6 7 1029.2 1029.2 0.0
20/12:00am 3.7 1.0 3.6 99 0.0 NE 7 9 4 5 1029.7 1029.7 0.0
 
Date/Time
EST
Temp
°C
App
Temp
°C
Dew
Point
°C
Rel
Hum
%
Delta-T
°C
Wind Press
QNH
hPa
Press
MSL
hPa
Rain since
9am
mm
Dir  Spd
km/h
Gust
km/h
Spd
kts
Gust
kts
19/11:30pm 3.9 1.2 3.8 99 0.0 NE 7 11 4 6 1030.0 1030.0 0.0
19/11:00pm 4.6 1.6 4.3 98 0.1 ENE 9 13 5 7 1030.1 1030.1 0.0
19/10:30pm 5.6 2.9 5.5 99 0.0 NE 9 11 5 6 1030.3 1030.3 0.0
19/10:00pm 6.1 3.5 6.0 99 0.0 NE 9 11 5 6 1030.1 1030.1 0.0
19/09:30pm 5.0 1.7 4.7 98 0.1 ENE 11 13 6 7 1030.2 1030.2 0.0
19/09:00pm 4.0 0.9 3.6 97 0.2 ENE 9 11 5 6 1030.4 1030.4 0.0
19/08:30pm 4.6 1.6 4.0 96 0.3 ENE 9 11 5 6 1030.2 1030.2 0.0
19/08:00pm 4.0 1.4 3.1 94 0.4 E 6 7 3 4 1030.3 1030.3 0.0
19/07:30pm 5.3 2.7 4.3 93 0.4 E 7 9 4 5 1030.2 1030.2 0.0
19/07:00pm 5.0 1.9 3.5 90 0.6 E 9 13 5 7 1029.9 1029.9 0.0
19/06:30pm 6.9 5.0 5.1 88 0.8 ENE 4 9 2 5 1029.7 1029.7 0.0
19/06:00pm 7.2 4.7 4.7 84 1.1 E 7 9 4 5 1029.5 1029.5 0.0
19/05:30pm 7.9 4.9 4.3 78 1.6 E 9 11 5 6 1029.1 1029.1 0.0
19/05:00pm 10.7 7.8 6.5 75 2.0 E 11 15 6 8 1028.8 1028.8 0.0
19/04:30pm 11.6 8.7 6.3 70 2.5 ESE 11 15 6 8 1028.9 1028.9 0.0
19/04:00pm 12.7 10.3 7.0 68 2.7 ESE 9 15 5 8 1029.0 1029.0 0.0
19/03:30pm 12.7 10.3 7.0 68 2.7 ESE 9 15 5 8 1028.8 1028.8 0.0
19/03:00pm 12.8 10.3 6.6 66 2.9 SE 9 15 5 8 1028.8 1028.8 0.0
19/02:30pm 13.2 11.7 6.8 65 3.1 SE 4 13 2 7 1028.9 1028.9 0.0
19/02:00pm 12.9 10.4 6.7 66 2.9 SE 9 15 5 8 1028.9 1028.9 0.0
19/01:30pm 12.7 10.3 7.0 68 2.7 ESE 9 15 5 8 1028.9 1028.9 0.0
19/01:00pm 12.4 9.9 6.5 67 2.8 ESE 9 15 5 8 1029.2 1029.2 0.0
19/12:30pm 12.4 10.0 7.1 70 2.6 SE 9 15 5 8 1029.5 1029.5 0.0
19/12:00pm 12.3 10.7 8.2 76 2.0 SSE 6 11 3 6 1029.7 1029.7 0.0
19/11:30am 11.8 10.6 9.7 87 1.1 WSW 6 9 3 5 1030.1 1030.1 0.0
19/11:00am 11.4 10.5 10.5 94 0.5 SSW 6 9 3 5 1030.2 1030.2 0.0
19/10:30am 10.6 9.9 10.1 97 0.3 SSW 4 7 2 4 1030.6 1030.6 0.0
19/10:00am 9.7 8.5 9.6 99 0.0 NW 6 9 3 5 1030.5 1030.5 0.0
19/09:30am 8.9 7.5 8.8 99 0.0 NW 6 7 3 4 1030.3 1030.3 0.0
19/09:00am 7.7 6.8 7.6 99 0.0 NE 2 7 1 4 1030.1 1030.1 0.0
19/08:30am 6.5 4.3 6.4 99 0.0 ENE 7 9 4 5 1029.9 1029.9 0.0
19/08:00am 5.2 3.3 5.1 99 0.0 SE 4 9 2 5 1029.7 1029.7 0.0
19/07:30am 4.6 2.0 4.3 98 0.1 ENE 7 9 4 5 1029.5 1029.5 0.0
19/07:00am 3.5 0.3 3.1 97 0.2 ENE 9 11 5 6 1029.1 1029.1 0.0
19/06:30am 3.7 0.5 3.1 96 0.2 ENE 9 11 5 6 1028.9 1028.9 0.0
19/06:00am 4.8 2.2 4.1 95 0.3 ENE 7 9 4 5 1028.5 1028.5 0.0
19/05:30am 7.0 4.8 6.3 95 0.3 ENE 7 9 4 5 1028.4 1028.4 0.0
19/05:00am 7.3 4.8 6.4 94 0.4 ENE 9 11 5 6 1028.1 1028.1 0.0
19/04:30am 8.5 5.0 7.4 93 0.5 S 15 22 8 12 1028.0 1028.0 0.0
19/04:00am 9.2 5.5 8.0 92 0.6 S 17 26 9 14 1028.2 1028.2 0.0
19/03:30am 9.2 5.5 7.8 91 0.7 S 17 26 9 14 1028.2 1028.2 0.0
19/03:00am 9.5 4.8 7.6 88 0.9 S 22 30 12 16 1028.3 1028.3 0.0
19/02:30am 9.5 6.0 7.1 85 1.1 S 15 26 8 14 1028.3 1028.3 0.0
19/02:00am 9.3 5.2 6.4 82 1.3 S 17 26 9 14 1028.4 1028.4 0.0
19/01:30am 9.8 6.1 6.5 80 1.5 S 15 26 8 14 1028.2 1028.2 0.0
19/01:00am 9.9 6.2 6.3 78 1.7 S 15 20 8 11 1028.0 1028.0 0.0
19/12:30am 9.3 6.2 5.5 77 1.7 SSE 11 19 6 10 1027.9 1027.9 0.0
19/12:00am 9.4 6.4 5.8 78 1.6 SSE 11 20 6 11 1027.9 1027.9 0.0
 
Date/Time
EST
Temp
°C
App
Temp
°C
Dew
Point
°C
Rel
Hum
%
Delta-T
°C
Wind Press
QNH
hPa
Press
MSL
hPa
Rain since
9am
mm
Dir  Spd
km/h
Gust
km/h
Spd
kts
Gust
kts
18/11:30pm 9.2 6.4 5.2 76 1.8 SSE 9 15 5 8 1027.9 1027.9 0.0
18/11:00pm 8.9 5.6 4.7 75 1.8 SSE 11 17 6 9 1027.6 1027.6 0.0
18/10:30pm 9.9 7.1 5.3 73 2.1 ESE 9 17 5 9 1027.7 1027.7 0.0
18/10:00pm 8.2 6.5 4.2 76 1.7 NE 2 6 1 3 1027.2 1027.2 0.0
18/09:30pm 8.3 5.7 4.1 75 1.8 ESE 7 13 4 7 1027.5 1027.5 0.0
18/09:00pm 9.3 5.7 4.9 74 2.0 SSE 13 24 7 13 1027.3 1027.3 0.0
18/08:30pm 9.2 6.0 5.0 75 1.9 SE 11 17 6 9 1027.1 1027.1 0.0
18/08:00pm 10.0 4.5 5.8 75 1.9 SSE 24 35 13 19 1026.7 1026.7 0.0
18/07:30pm 10.1 3.8 5.5 73 2.1 SSE 28 43 15 23 1026.4 1026.4 0.0
18/07:00pm 10.5 4.0 6.3 75 1.9 SSE 30 44 16 24 1026.3 1026.3 0.0
18/06:30pm 10.6 4.7 6.0 73 2.1 SSE 26 37 14 20 1026.1 1026.1 0.0
18/06:00pm 10.9 6.5 5.0 67 2.7 SSE 17 28 9 15 1025.6 1025.6 0.0
18/05:30pm 10.6 5.7 4.9 68 2.6 SSE 20 32 11 17 1025.4 1025.4 0.0
18/05:00pm 10.7 5.1 5.5 70 2.4 S 24 39 13 21 1025.4 1025.4 0.0
18/04:30pm 10.6 7.1 5.6 71 2.3 SSE 13 24 7 13 1025.0 1025.0 0.0
18/04:00pm 11.4 6.8 5.7 68 2.6 S 19 28 10 15 1024.8 1024.8 0.0
18/03:30pm 11.6 6.8 5.5 66 2.8 S 20 30 11 16 1024.4 1024.4 0.0
18/03:00pm 11.8 7.3 6.1 68 2.7 S 19 30 10 16 1024.4 1024.4 0.0
18/02:30pm 10.9 6.4 5.9 71 2.3 SSW 19 30 10 16 1024.3 1024.3 0.0
18/02:00pm 11.7 6.1 5.3 65 2.9 SSW 24 30 13 16 1024.2 1024.2 0.0
18/01:30pm 10.6 4.9 4.9 68 2.6 SSW 24 33 13 18 1024.3 1024.3 0.0
18/01:00pm 11.7 6.4 5.1 64 3.0 SSW 22 28 12 15 1024.2 1024.2 0.0
18/12:30pm 11.0 4.6 5.3 68 2.6 SSW 28 33 15 18 1024.4 1024.4 0.0
18/12:00pm 11.0 5.3 4.9 66 2.8 S 24 33 13 18 1024.4 1024.4 0.0
18/11:30am 10.2 4.4 4.4 67 2.6 S 24 37 13 20 1024.5 1024.5 0.0
18/11:00am 10.3 4.4 3.8 64 2.8 S 24 35 13 19 1024.7 1024.7 0.0
18/10:30am 10.8 4.9 4.0 63 3.0 S 24 33 13 18 1024.7 1024.7 0.0
18/10:00am 10.3 2.9 3.8 64 2.8 S 32 43 17 23 1024.2 1024.2 0.0
18/09:30am 10.1 2.1 3.6 64 2.8 S 35 48 19 26 1023.7 1023.7 0.0
18/09:06am 9.7 2.2 3.4 65 2.7 S 32 50 17 27 1023.5 1023.5 0.0
18/09:00am 9.6 2.1 3.4 65 2.7 S 32 48 17 26 1023.5 1023.5 1.2
18/08:30am 9.6 2.0 3.8 67 2.5 S 33 52 18 28 1023.2 1023.2 1.2
18/08:25am 9.6 2.0 4.0 68 2.5 S 33 52 18 28 1023.2 1023.2 1.2
18/08:00am 9.6 4.5 4.0 68 2.4 S 20 35 11 19 1023.0 1023.0 1.2
18/07:30am 9.8 4.8 4.4 69 2.4 S 20 33 11 18 1022.5 1022.5 1.2
18/07:00am 10.1 5.3 4.9 70 2.3 S 19 30 10 16 1022.0 1022.0 1.2
18/06:30am 10.7 6.1 5.7 71 2.3 S 19 28 10 15 1021.6 1021.6 1.2
18/06:00am 11.0 5.1 5.7 70 2.4 S 26 35 14 19 1021.3 1021.3 1.2
18/05:30am 11.1 4.5 6.0 71 2.4 SSW 30 41 16 22 1020.7 1020.7 1.2
18/05:00am 11.0 4.0 6.0 71 2.3 S 32 43 17 23 1020.2 1020.2 1.2
18/04:30am 11.1 4.6 6.3 72 2.2 S 30 39 16 21 1019.9 1019.9 1.2
18/04:00am 11.0 4.8 6.2 72 2.2 S 28 37 15 20 1019.8 1019.8 1.2
18/03:30am 11.0 4.0 6.2 72 2.2 S 32 44 17 24 1019.4 1019.4 1.2
18/03:00am 11.1 4.1 6.0 71 2.4 S 32 44 17 24 1019.3 1019.3 1.2
18/02:30am 11.2 4.3 6.3 72 2.3 S 32 41 17 22 1019.4 1019.4 1.2
18/02:00am 11.2 5.0 6.1 71 2.4 S 28 39 15 21 1019.1 1019.1 1.2
18/01:30am 11.6 4.4 5.7 67 2.7 S 33 48 18 26 1018.8 1018.8 1.2
18/01:00am 11.7 5.5 6.2 69 2.6 SSW 28 41 15 22 1018.7 1018.7 1.2
18/12:30am 11.4 4.9 6.3 71 2.4 S 30 46 16 25 1018.3 1018.3 1.2
18/12:26am 11.3 5.2 6.6 73 2.2 S 28 46 15 25 1018.2 1018.2 1.2
18/12:00am 11.3 5.5 6.4 72 2.3 S 26 35 14 19 1018.2 1018.2 1.2
 
Date/Time
EST
Temp
°C
App
Temp
°C
Dew
Point
°C
Rel
Hum
%
Delta-T
°C
Wind Press
QNH
hPa
Press
MSL
hPa
Rain since
9am
mm
Dir  Spd
km/h
Gust
km/h
Spd
kts
Gust
kts
17/11:30pm 11.2 6.7 6.9 75 2.0 S 20 28 11 15 1018.4 1018.4 1.2
17/11:00pm 10.8 6.2 6.7 76 1.9 S 20 30 11 16 1018.0 1018.0 1.2
17/10:30pm 10.7 5.2 6.1 73 2.1 S 24 37 13 20 1017.4 1017.5 1.2
17/10:06pm 10.8 4.3 6.7 76 1.9 S 30 48 16 26 1017.1 1017.2 1.2
17/10:00pm 10.7 3.8 6.5 75 2.0 S 32 46 17 25 1017.0 1017.1 1.2
17/09:30pm 10.8 5.4 6.4 74 2.1 S 24 37 13 20 1016.8 1016.9 1.2
17/09:00pm 10.9 6.3 6.3 73 2.1 S 20 33 11 18 1016.7 1016.8 1.2
17/08:30pm 11.0 5.9 6.2 72 2.2 SSE 22 39 12 21 1016.4 1016.5 1.2
17/08:00pm 11.0 4.4 6.0 71 2.3 S 30 43 16 23 1015.9 1016.0 1.2
17/07:30pm 11.1 3.5 5.8 70 2.5 S 35 48 19 26 1015.5 1015.6 1.2
17/07:00pm 11.1 4.6 6.3 72 2.2 S 30 44 16 24 1015.1 1015.2 1.2
17/06:30pm 11.1 6.3 5.8 70 2.5 S 20 32 11 17 1015.0 1015.1 1.2
17/06:00pm 11.2 6.1 5.9 70 2.5 S 22 32 12 17 1014.6 1014.7 1.2
17/05:30pm 11.2 5.7 5.9 70 2.5 S 24 37 13 20 1013.7 1013.8 1.2
17/05:00pm 11.9 4.5 6.6 70 2.5 S 35 46 19 25 1012.7 1012.8 1.2
17/04:30pm 12.0 6.3 8.3 78 1.8 S 28 39 15 21 1012.1 1012.2 1.2
17/04:00pm 12.2 7.6 8.3 77 1.9 S 22 30 12 16 1011.8 1011.9 1.2

Other Formats:

Comma delimited format used in spreadsheet applications
http://www.bom.gov.au/fwo/IDT60801/IDT60801.94980.axf

JavaScript Object Notation format (JSON) in row-major order
http://www.bom.gov.au/fwo/IDT60801/IDT60801.94980.json